This is the latest recevied weather packets stored in our database for station/object IK1AMC-3. If no packets are shown the sender has not sent any weather packets the latest 10 day(s).
| Time | Temp. | Humidity | Pressure | Rain* | Wind** | Luminosity | Snow |
|---|---|---|---|---|---|---|---|
| 1777346272 | 17.22° C | 74% | 1015.3 hPa | - | - | - | - |
| 1777345071 | 17.22° C | 75% | 1015.3 hPa | - | - | - | - |
| 1777343869 | 17.22° C | 74% | 1015.4 hPa | - | - | - | - |
| 1777342668 | 17.22° C | 73% | 1015.4 hPa | - | - | - | - |
| 1777341467 | 17.22° C | 74% | 1015.6 hPa | - | - | - | - |
| 1777339064 | 17.22° C | 77% | 1015.7 hPa | - | - | - | - |
| 1777337863 | 17.22° C | 77% | 1015.9 hPa | - | - | - | - |
| 1777334259 | 17.78° C | 76% | 1016.3 hPa | - | - | - | - |
| 1777312635 | 18.89° C | 70% | 1016.2 hPa | - | - | - | - |
| 1777311433 | 18.89° C | 70% | 1016.2 hPa | - | - | - | - |
| 1777305427 | 20.56° C | 60% | 1016.3 hPa | - | - | - | - |
| 1777304226 | 21.11° C | 59% | 1016.6 hPa | - | - | - | - |
| 1777300622 | 21.67° C | 55% | 1016.7 hPa | - | - | - | - |
| 1777299421 | 22.22° C | 53% | 1016.8 hPa | - | - | - | - |
| 1777297018 | 21.67° C | 55% | 1017.4 hPa | - | - | - | - |
| 1777295817 | 22.22° C | 59% | 1017.7 hPa | - | - | - | - |
| 1777294615 | 21.67° C | 59% | 1017.9 hPa | - | - | - | - |
| 1777293414 | 20.56° C | 62% | 1018.1 hPa | - | - | - | - |
| 1777292213 | 21.67° C | 58% | 1018.2 hPa | - | - | - | - |
| 1777291011 | 21.11° C | 61% | 1018.4 hPa | - | - | - | - |
| 1777289810 | 20.56° C | 61% | 1018.6 hPa | - | - | - | - |
| 1777288609 | 20.56° C | 62% | 1018.7 hPa | - | - | - | - |
| 1777287407 | 21.11° C | 61% | 1018.8 hPa | - | - | - | - |
| 1777286206 | 20.56° C | 63% | 1018.9 hPa | - | - | - | - |
| 1777285005 | 20° C | 63% | 1019 hPa | - | - | - | - |
* Rain since midnight (hover to see other rain measurements)
** Current wind speed in m/s (hover to see current wind gust speed)